Time;durP1;ratioP1;P1;durP2;ratioP2;P2;SDS_P1;SDS_P2;PMS_P1;PMS_P2;Temp;Humidity;BMP_temperature;BMP_pressure;BME280_temperature;BME280_humidity;BME280_pressure;Samples;Min_cycle;Max_cycle;Signal;HPM_P1;HPM_P2
2022/02/17 00:00:53;;;;;;;9.50;1.30;;;10.20;99.90;;;;;;5027122;28;20033;-73
2022/02/17 00:03:18;;;;;;;6.13;1.98;;;10.20;99.90;;;;;;5026914;28;20061;-72
2022/02/17 00:05:44;;;;;;;4.95;1.38;;;10.20;99.90;;;;;;5026069;28;20478;-71
2022/02/17 00:08:11;;;;;;;2.42;0.60;;;10.20;99.90;;;;;;5027268;28;20029;-73
2022/02/17 00:10:39;;;;;;;4.60;2.08;;;10.20;99.90;;;;;;5027261;28;20036;-76
2022/02/17 00:13:06;;;;;;;0.88;0.47;;;10.20;99.90;;;;;;5027576;28;20025;-75
2022/02/17 00:15:32;;;;;;;8.32;1.33;;;10.10;99.90;;;;;;5025605;28;20065;-74
2022/02/17 00:17:59;;;;;;;8.55;1.17;;;10.20;99.90;;;;;;5027009;28;20072;-73
2022/02/17 00:20:26;;;;;;;13.75;1.90;;;10.10;99.90;;;;;;5027095;28;20021;-75
2022/02/17 00:22:53;;;;;;;7.50;1.30;;;10.10;99.90;;;;;;5026856;28;20171;-72
2022/02/17 00:25:20;;;;;;;8.23;1.55;;;10.20;99.90;;;;;;5026572;28;20056;-75
2022/02/17 00:27:46;;;;;;;13.25;2.47;;;10.20;99.90;;;;;;5027145;28;20026;-73
2022/02/17 00:30:11;;;;;;;8.90;1.83;;;10.20;99.90;;;;;;5043155;28;20033;-75
2022/02/17 00:33:07;;;;;;;11.38;1.42;;;10.20;99.90;;;;;;5046725;28;20041;-73
2022/02/17 00:35:33;;;;;;;5.80;1.50;;;10.20;99.90;;;;;;5045655;28;20068;-73
2022/02/17 00:38:00;;;;;;;6.38;1.15;;;10.30;99.90;;;;;;5044730;28;20022;-76
2022/02/17 00:40:25;;;;;;;3.15;0.98;;;10.30;99.90;;;;;;5046638;28;20025;-73
2022/02/17 00:42:55;;;;;;;11.88;1.63;;;10.30;99.90;;;;;;5045225;28;20032;-74
2022/02/17 00:45:21;;;;;;;6.75;1.60;;;10.20;99.90;;;;;;5045329;28;20040;-75
2022/02/17 00:47:46;;;;;;;11.77;1.30;;;10.20;99.90;;;;;;5045803;28;20025;-73
2022/02/17 00:50:12;;;;;;;6.25;1.27;;;10.20;99.90;;;;;;5044924;28;20032;-73
2022/02/17 00:52:45;;;;;;;12.45;1.55;;;10.20;99.90;;;;;;5046006;28;20025;-73
2022/02/17 00:55:11;;;;;;;3.60;1.33;;;10.20;99.90;;;;;;5045152;28;20093;-75
2022/02/17 00:57:37;;;;;;;11.60;1.75;;;10.30;99.90;;;;;;5046412;28;20037;-70
2022/02/17 01:00:04;;;;;;;13.65;1.20;;;10.30;99.90;;;;;;5045787;28;20026;-76
2022/02/17 01:02:30;;;;;;;9.52;1.75;;;10.30;99.90;;;;;;5046184;28;20029;-71
2022/02/17 01:04:55;;;;;;;16.08;2.47;;;10.30;99.90;;;;;;5045636;28;20072;-74
2022/02/17 01:07:21;;;;;;;2.35;0.88;;;10.20;99.90;;;;;;5045832;28;20057;-74
2022/02/17 01:09:47;;;;;;;23.33;1.67;;;10.20;99.90;;;;;;5045955;28;20032;-76
2022/02/17 01:12:12;;;;;;;13.50;1.77;;;10.20;99.90;;;;;;5044044;28;20031;-76
2022/02/17 01:14:44;;;;;;;9.10;1.90;;;10.20;99.90;;;;;;5044461;28;20033;-76
2022/02/17 01:17:10;;;;;;;9.90;1.20;;;10.10;99.90;;;;;;5044788;28;20398;-73
2022/02/17 01:19:37;;;;;;;6.97;1.70;;;10.00;99.90;;;;;;5044643;28;20017;-76
2022/02/17 01:22:03;;;;;;;6.57;1.52;;;9.90;99.90;;;;;;5045901;28;20043;-77
2022/02/17 01:24:34;;;;;;;4.63;1.02;;;9.70;99.90;;;;;;5044002;28;20116;-76
2022/02/17 01:27:00;;;;;;;8.80;1.38;;;9.60;99.90;;;;;;5044056;28;20025;-77
2022/02/17 01:29:25;;;;;;;5.50;1.20;;;9.50;99.90;;;;;;5044302;28;20036;-74
2022/02/17 01:31:51;;;;;;;13.07;2.17;;;9.40;99.90;;;;;;5044383;28;20036;-73
2022/02/17 01:34:16;;;;;;;16.80;2.55;;;9.30;99.90;;;;;;5045607;28;20059;-75
2022/02/17 01:36:44;;;;;;;10.30;2.33;;;9.30;99.90;;;;;;5044397;28;20026;-75
2022/02/17 01:39:09;;;;;;;5.40;1.30;;;9.30;99.90;;;;;;5036218;28;20029;-73
2022/02/17 01:41:36;;;;;;;13.88;2.30;;;9.30;99.90;;;;;;5032947;28;20072;-75
2022/02/17 01:44:03;;;;;;;6.78;1.83;;;9.20;99.90;;;;;;5026021;28;20549;-72
2022/02/17 01:46:37;;;;;;;4.18;1.13;;;9.20;99.90;;;;;;5025751;28;20326;-76
2022/02/17 01:49:04;;;;;;;;;;;9.00;99.90;;;;;;5024791;28;20032;-75
2022/02/17 01:51:30;;;;;;;4.10;1.50;;;8.90;99.90;;;;;;5024434;28;19905;-74
2022/02/17 01:53:59;;;;;;;9.57;1.35;;;8.80;99.90;;;;;;5025229;28;20045;-73
2022/02/17 01:56:26;;;;;;;8.40;1.65;;;8.70;99.90;;;;;;5023405;28;20034;-75
2022/02/17 01:58:58;;;;;;;3.50;0.65;;;8.60;99.90;;;;;;5030251;28;20022;-76
2022/02/17 02:01:24;;;;;;;6.20;0.50;;;7.70;99.90;;;;;;5025041;28;20121;-74
2022/02/17 02:03:50;;;;;;;7.68;1.00;;;7.40;99.90;;;;;;5024839;28;20022;-77
2022/02/17 02:06:16;;;;;;;2.58;1.20;;;7.20;99.90;;;;;;5034286;28;20037;-71
2022/02/17 02:08:44;;;;;;;3.45;0.50;;;7.20;99.90;;;;;;5025332;28;20060;-72
2022/02/17 02:11:10;;;;;;;3.45;1.20;;;7.20;99.90;;;;;;5026743;28;20026;-75
2022/02/17 02:13:37;;;;;;;2.95;1.10;;;7.20;99.90;;;;;;5041687;28;20037;-75
2022/02/17 02:16:08;;;;;;;4.80;1.08;;;7.30;99.90;;;;;;5045020;28;20028;-75
2022/02/17 02:18:34;;;;;;;8.45;1.98;;;7.30;99.90;;;;;;5036609;28;20101;-72
2022/02/17 02:20:59;;;;;;;2.78;0.98;;;7.30;99.90;;;;;;5025033;28;20030;-76
2022/02/17 02:23:25;;;;;;;6.95;0.95;;;7.40;99.90;;;;;;5024804;28;20034;-72
2022/02/17 02:25:52;;;;;;;19.55;2.58;;;7.40;99.90;;;;;;5024579;28;20054;-73
2022/02/17 02:28:29;;;;;;;11.98;1.90;;;7.50;99.90;;;;;;5042486;28;20420;-75
2022/02/17 02:30:56;;;;;;;6.07;2.35;;;7.60;99.90;;;;;;5024714;28;20040;-74
2022/02/17 02:33:24;;;;;;;8.70;2.92;;;7.60;99.90;;;;;;5024933;28;20053;-74
2022/02/17 02:35:51;;;;;;;6.22;1.85;;;7.70;99.90;;;;;;5023707;28;20025;-73
2022/02/17 02:38:19;;;;;;;10.35;2.15;;;7.70;99.90;;;;;;5043306;28;20045;-73
2022/02/17 02:40:45;;;;;;;8.07;1.08;;;7.70;99.90;;;;;;5029123;28;20033;-74
2022/02/17 02:43:11;;;;;;;5.22;0.90;;;7.70;99.90;;;;;;5024977;28;20148;-73
2022/02/17 02:45:37;;;;;;;13.38;1.45;;;7.70;99.90;;;;;;5026743;28;20037;-73
2022/02/17 02:48:11;;;;;;;9.52;1.42;;;7.70;99.90;;;;;;5032430;28;20033;-74
2022/02/17 02:50:38;;;;;;;3.60;0.82;;;7.70;99.90;;;;;;5025051;28;20026;-74
2022/02/17 02:53:05;;;;;;;1.73;1.05;;;7.80;99.90;;;;;;5024709;28;20030;-73
2022/02/17 02:55:32;;;;;;;5.80;0.85;;;7.80;99.90;;;;;;5024779;28;20033;-73
2022/02/17 02:57:58;;;;;;;9.32;1.80;;;7.80;99.90;;;;;;5024537;28;20030;-74
2022/02/17 03:00:25;;;;;;;2.55;1.02;;;7.80;99.90;;;;;;5024606;28;20022;-73
2022/02/17 03:02:50;;;;;;;8.10;1.35;;;7.80;99.90;;;;;;5024807;28;20118;-72
2022/02/17 03:05:23;;;;;;;8.85;1.08;;;7.80;99.90;;;;;;5024385;28;20081;-74
2022/02/17 03:07:52;;;;;;;2.63;0.80;;;7.80;99.90;;;;;;5042215;28;20052;-73
2022/02/17 03:10:18;;;;;;;9.48;0.85;;;7.80;99.90;;;;;;5028424;28;20109;-72
2022/02/17 03:12:44;;;;;;;14.10;1.67;;;7.90;99.90;;;;;;5040616;28;20036;-75
2022/02/17 03:15:10;;;;;;;13.38;1.48;;;7.90;99.90;;;;;;5048251;28;20026;-70
2022/02/17 03:17:38;;;;;;;3.90;1.27;;;8.00;99.90;;;;;;5048279;28;20044;-71
2022/02/17 03:20:07;;;;;;;10.90;2.58;;;8.00;99.90;;;;;;5048112;28;20029;-73
2022/02/17 03:22:34;;;;;;;13.00;1.50;;;8.00;99.90;;;;;;5048264;28;20029;-69
2022/02/17 03:25:00;;;;;;;7.95;1.90;;;8.00;99.90;;;;;;5047749;28;20099;-74
2022/02/17 03:27:26;;;;;;;10.13;2.15;;;8.00;99.90;;;;;;5047451;28;20477;-71
2022/02/17 03:29:51;;;;;;;10.32;1.77;;;8.10;99.90;;;;;;5047756;28;20064;-72
2022/02/17 03:32:19;;;;;;;17.50;1.48;;;8.10;99.90;;;;;;5047892;28;20485;-73
2022/02/17 03:34:54;;;;;;;19.45;1.92;;;8.10;99.90;;;;;;5047376;28;20025;-73
2022/02/17 03:37:19;;;;;;;7.47;1.90;;;8.20;99.90;;;;;;5047665;28;20033;-71
2022/02/17 03:39:45;;;;;;;5.97;1.60;;;8.20;99.90;;;;;;5047770;28;20038;-71
2022/02/17 03:42:11;;;;;;;6.25;1.73;;;8.20;99.90;;;;;;5047171;28;20026;-71
2022/02/17 03:44:37;;;;;;;13.95;2.67;;;8.20;99.90;;;;;;5047797;28;20049;-70
2022/02/17 03:47:03;;;;;;;10.13;2.20;;;8.20;99.90;;;;;;5047666;28;20029;-71
2022/02/17 03:49:28;;;;;;;10.18;1.73;;;8.10;99.90;;;;;;5047333;28;20029;-71
2022/02/17 03:51:54;;;;;;;8.80;1.75;;;8.10;99.90;;;;;;5046105;28;20030;-73
2022/02/17 03:54:20;;;;;;;7.10;2.17;;;8.10;99.90;;;;;;5046130;28;20470;-70
2022/02/17 03:56:50;;;;;;;5.57;1.90;;;8.10;99.90;;;;;;5046889;28;20089;-73
2022/02/17 03:59:16;;;;;;;3.28;1.23;;;8.10;99.90;;;;;;5047564;28;20056;-72
2022/02/17 04:01:42;;;;;;;4.10;1.35;;;8.10;99.90;;;;;;5047276;28;20034;-74
2022/02/17 04:04:10;;;;;;;13.98;2.20;;;8.20;99.90;;;;;;5046963;28;20060;-74
2022/02/17 04:06:35;;;;;;;13.63;2.47;;;8.10;99.90;;;;;;5047347;28;20025;-73
2022/02/17 04:09:02;;;;;;;10.45;0.95;;;8.20;99.90;;;;;;5045152;28;20492;-75
2022/02/17 04:11:28;;;;;;;10.95;2.10;;;8.20;99.90;;;;;;5029216;28;20040;-75
2022/02/17 04:13:53;;;;;;;10.20;1.58;;;8.20;99.90;;;;;;5027291;28;20022;-74
2022/02/17 04:16:20;;;;;;;8.63;1.73;;;8.10;99.90;;;;;;5026850;28;20030;-70
2022/02/17 04:18:47;;;;;;;7.18;1.75;;;8.20;99.90;;;;;;5026797;28;20091;-74
2022/02/17 04:21:14;;;;;;;4.97;1.85;;;8.20;99.90;;;;;;5027482;28;20025;-73
2022/02/17 04:23:44;;;;;;;5.00;0.93;;;8.20;99.90;;;;;;5026611;28;20038;-74
2022/02/17 04:26:15;;;;;;;10.48;1.48;;;8.20;99.90;;;;;;5026046;28;20438;-75
2022/02/17 04:28:42;;;;;;;6.63;1.55;;;8.20;99.90;;;;;;5029251;28;20029;-72
2022/02/17 04:31:10;;;;;;;6.25;1.83;;;8.10;99.90;;;;;;5025390;28;20114;-73
2022/02/17 04:33:36;;;;;;;10.68;2.47;;;8.20;99.90;;;;;;5027487;28;20026;-72
2022/02/17 04:36:16;;;;;;;12.15;1.50;;;8.20;99.90;;;;;;5026765;28;20033;-73
2022/02/17 04:38:42;;;;;;;11.57;1.83;;;8.20;99.90;;;;;;5026515;28;20093;-70
2022/02/17 04:43:53;;;;;;;10.10;1.88;;;8.10;99.90;;;;;;5026810;28;20112;-75
2022/02/17 04:46:19;;;;;;;6.45;1.73;;;8.10;99.90;;;;;;5026385;28;20391;-74
2022/02/17 04:48:45;;;;;;;7.57;1.85;;;8.10;99.90;;;;;;5025459;28;20037;-71
2022/02/17 04:51:14;;;;;;;13.50;2.70;;;8.10;99.90;;;;;;5026361;28;20030;-75
2022/02/17 04:53:41;;;;;;;8.95;2.05;;;8.10;99.90;;;;;;5026515;28;20034;-73
2022/02/17 04:56:08;;;;;;;14.48;3.22;;;8.10;99.90;;;;;;5026697;28;20058;-72
2022/02/17 04:58:35;;;;;;;7.38;2.08;;;8.10;99.90;;;;;;5026511;28;20025;-75
2022/02/17 05:01:00;;;;;;;7.15;1.58;;;8.10;99.90;;;;;;5026288;28;20106;-76
2022/02/17 05:03:26;;;;;;;10.15;2.17;;;8.10;99.90;;;;;;5025082;28;20046;-70
2022/02/17 05:05:53;;;;;;;5.78;1.50;;;8.10;99.90;;;;;;5025833;28;20117;-73
2022/02/17 05:08:19;;;;;;;2.78;1.02;;;8.10;99.90;;;;;;5026115;28;20030;-74
2022/02/17 05:10:46;;;;;;;6.68;2.00;;;8.10;99.90;;;;;;5026170;28;20025;-73
2022/02/17 05:13:12;;;;;;;9.38;1.40;;;8.20;99.90;;;;;;5029696;28;20060;-73
2022/02/17 05:15:42;;;;;;;10.90;2.75;;;8.10;99.90;;;;;;5025086;28;20029;-73
2022/02/17 05:18:07;;;;;;;13.48;2.47;;;8.00;99.90;;;;;;5026105;28;20029;-73
2022/02/17 05:20:33;;;;;;;11.35;1.63;;;8.10;99.90;;;;;;5043164;28;20068;-72
2022/02/17 05:22:59;;;;;;;15.65;1.90;;;8.10;99.90;;;;;;5045930;28;20052;-73
2022/02/17 05:25:25;;;;;;;8.05;1.55;;;8.10;99.90;;;;;;5044284;28;20049;-74
2022/02/17 05:27:51;;;;;;;7.20;1.23;;;8.10;99.90;;;;;;5044158;28;20029;-73
2022/02/17 05:30:17;;;;;;;11.20;2.47;;;8.10;99.90;;;;;;5043931;28;20026;-74
2022/02/17 05:32:43;;;;;;;4.03;1.73;;;8.00;99.90;;;;;;5045808;28;20034;-72
2022/02/17 05:35:10;;;;;;;11.90;1.92;;;8.10;99.90;;;;;;5044132;28;20089;-75
2022/02/17 05:37:39;;;;;;;9.93;1.85;;;8.00;99.90;;;;;;5045979;28;20026;-73
2022/02/17 05:40:13;;;;;;;10.98;1.30;;;8.00;99.90;;;;;;5045725;28;20044;-74
2022/02/17 05:42:39;;;;;;;6.32;1.15;;;8.00;99.90;;;;;;5043852;28;20021;-74
2022/02/17 05:45:05;;;;;;;14.80;2.08;;;8.00;99.90;;;;;;5045613;28;20041;-74
2022/02/17 05:47:31;;;;;;;9.68;2.28;;;8.00;99.90;;;;;;5044910;28;20030;-72
2022/02/17 05:49:56;;;;;;;10.77;1.33;;;8.00;99.90;;;;;;5045285;28;20026;-72
2022/02/17 05:52:22;;;;;;;15.10;1.65;;;8.00;99.90;;;;;;5045519;28;20370;-72
2022/02/17 05:54:48;;;;;;;2.10;0.88;;;8.00;99.90;;;;;;5044797;28;20081;-73
2022/02/17 05:57:16;;;;;;;4.75;1.45;;;8.00;99.90;;;;;;5045291;28;20029;-77
2022/02/17 05:59:44;;;;;;;5.00;1.88;;;8.00;99.90;;;;;;5045179;28;20052;-76
2022/02/17 06:02:10;;;;;;;6.60;1.90;;;8.00;99.90;;;;;;5044889;28;20033;-75
2022/02/17 06:04:36;;;;;;;12.00;1.15;;;7.90;99.90;;;;;;5045331;28;20108;-75
2022/02/17 06:07:01;;;;;;;17.13;2.47;;;7.90;99.90;;;;;;5043599;28;20093;-76
2022/02/17 06:09:27;;;;;;;6.82;1.83;;;7.90;99.90;;;;;;5044863;28;20029;-73
2022/02/17 06:11:58;;;;;;;9.52;2.00;;;7.90;99.90;;;;;;5045211;28;20075;-75
2022/02/17 06:14:24;;;;;;;7.75;1.95;;;7.90;99.90;;;;;;5043650;28;20041;-73
2022/02/17 06:16:49;;;;;;;7.60;1.52;;;8.00;99.90;;;;;;5042308;28;20018;-73
2022/02/17 06:19:15;;;;;;;19.50;3.03;;;8.00;99.90;;;;;;5025286;28;20579;-75
2022/02/17 06:21:40;;;;;;;6.95;1.73;;;8.00;99.90;;;;;;5025252;28;20022;-73
2022/02/17 06:24:07;;;;;;;7.38;1.60;;;8.00;99.90;;;;;;5033916;28;20050;-77
2022/02/17 06:26:32;;;;;;;8.30;1.27;;;8.00;99.90;;;;;;5033991;28;20036;-71
2022/02/17 06:28:58;;;;;;;4.82;1.20;;;8.00;99.90;;;;;;5031642;28;20514;-71
2022/02/17 06:31:24;;;;;;;11.38;1.35;;;8.00;99.90;;;;;;5039592;28;20026;-68
2022/02/17 06:33:50;;;;;;;8.75;1.83;;;7.90;99.90;;;;;;5038088;28;20033;-73
2022/02/17 06:36:17;;;;;;;4.68;1.20;;;7.90;99.90;;;;;;5025361;28;20072;-71
2022/02/17 06:38:44;;;;;;;5.55;1.27;;;7.90;99.90;;;;;;5029512;28;20037;-71
2022/02/17 06:41:09;;;;;;;11.57;2.08;;;7.80;99.90;;;;;;5038259;28;20049;-71
2022/02/17 06:43:36;;;;;;;12.05;1.98;;;8.00;99.90;;;;;;5046229;28;20037;-68
2022/02/17 06:46:03;;;;;;;6.75;1.88;;;8.00;99.90;;;;;;5028660;28;20030;-71
2022/02/17 06:48:29;;;;;;;10.27;2.58;;;7.90;99.90;;;;;;5028852;28;20037;-69
2022/02/17 06:50:57;;;;;;;13.40;2.03;;;7.90;99.90;;;;;;5030830;28;20462;-72
2022/02/17 06:53:22;;;;;;;9.10;2.17;;;7.90;99.90;;;;;;5035007;28;20022;-71
2022/02/17 06:55:49;;;;;;;4.63;0.75;;;7.90;99.90;;;;;;5030529;28;20065;-71
2022/02/17 06:58:16;;;;;;;8.95;2.65;;;7.90;99.90;;;;;;5038554;28;20029;-73
2022/02/17 07:00:42;;;;;;;15.32;1.83;;;7.90;99.90;;;;;;5028453;28;20030;-70
2022/02/17 07:03:08;;;;;;;5.68;1.00;;;7.90;99.90;;;;;;5031046;28;20025;-74
2022/02/17 07:05:38;;;;;;;12.57;1.92;;;7.90;99.90;;;;;;5036676;28;20118;-71
2022/02/17 07:08:04;;;;;;;13.48;1.63;;;7.90;99.90;;;;;;5028324;28;20026;-72
2022/02/17 07:13:14;;;;;;;9.73;2.55;;;7.80;99.90;;;;;;5028821;28;20032;-71
2022/02/17 07:15:51;;;;;;;4.40;1.52;;;7.70;99.90;;;;;;5034165;28;20034;-72
2022/02/17 07:18:19;;;;;;;11.40;2.00;;;7.60;99.90;;;;;;5030657;28;20026;-71
2022/02/17 07:20:45;;;;;;;5.05;1.15;;;7.50;99.90;;;;;;5043434;28;20021;-71
2022/02/17 07:23:14;;;;;;;8.35;1.85;;;7.40;99.90;;;;;;5027092;28;20040;-72
2022/02/17 07:25:40;;;;;;;17.85;2.38;;;7.40;99.90;;;;;;5036695;28;20041;-72
2022/02/17 07:28:06;;;;;;;28.75;1.90;;;7.40;99.90;;;;;;5028502;28;20090;-71
2022/02/17 07:30:34;;;;;;;12.05;2.35;;;7.50;99.90;;;;;;5027969;28;20030;-70
2022/02/17 07:32:59;;;;;;;6.03;1.23;;;7.40;99.90;;;;;;5027987;28;20033;-69
2022/02/17 07:35:29;;;;;;;14.07;3.10;;;7.40;99.90;;;;;;5030090;28;20041;-72
2022/02/17 07:37:55;;;;;;;11.23;1.77;;;7.40;99.90;;;;;;5028008;28;20414;-72
2022/02/17 07:40:21;;;;;;;16.92;2.40;;;7.40;99.90;;;;;;5028335;28;20025;-71
2022/02/17 07:42:46;;;;;;;15.73;1.77;;;7.40;99.90;;;;;;5027962;28;20053;-72
2022/02/17 07:45:13;;;;;;;6.63;1.35;;;7.40;99.90;;;;;;5035737;28;20053;-73
2022/02/17 07:47:46;;;;;;;11.75;1.88;;;7.40;99.90;;;;;;5027918;28;20044;-72
2022/02/17 07:50:15;;;;;;;4.75;1.70;;;7.40;99.90;;;;;;5043096;28;20030;-72
2022/02/17 07:52:42;;;;;;;6.10;2.22;;;7.40;99.90;;;;;;5027517;28;20029;-72
2022/02/17 07:55:08;;;;;;;16.05;1.90;;;7.40;99.90;;;;;;5026488;28;20046;-71
2022/02/17 07:57:34;;;;;;;11.35;2.20;;;7.40;99.90;;;;;;5031532;28;20049;-69
2022/02/17 08:00:00;;;;;;;6.78;2.00;;;7.40;99.90;;;;;;5030541;28;20101;-71
2022/02/17 08:02:30;;;;;;;14.30;2.20;;;7.40;99.90;;;;;;5035630;28;20034;-75
2022/02/17 08:04:59;;;;;;;10.00;1.92;;;7.30;99.90;;;;;;5025279;28;20063;-74
2022/02/17 08:07:25;;;;;;;7.53;1.90;;;7.30;99.90;;;;;;5033023;28;20029;-74
2022/02/17 08:09:53;;;;;;;8.15;2.10;;;7.30;99.90;;;;;;5043687;28;20026;-69
2022/02/17 08:12:19;;;;;;;31.88;2.05;;;7.20;99.90;;;;;;5028280;28;20017;-72
2022/02/17 08:14:46;;;;;;;17.65;2.05;;;7.20;99.90;;;;;;5037296;28;20482;-75
2022/02/17 08:17:12;;;;;;;13.18;2.10;;;7.20;99.90;;;;;;5036122;28;20077;-71
2022/02/17 08:19:38;;;;;;;14.55;1.52;;;7.30;99.90;;;;;;5030944;28;20034;-69
2022/02/17 08:22:04;;;;;;;16.48;2.53;;;7.30;99.90;;;;;;5028219;28;20041;-68
2022/02/17 08:24:33;;;;;;;5.95;2.05;;;7.40;99.90;;;;;;5034542;28;20080;-73
2022/02/17 08:26:59;;;;;;;9.30;2.25;;;7.40;99.90;;;;;;5038286;28;20037;-72
2022/02/17 08:29:34;;;;;;;4.20;2.10;;;7.40;99.90;;;;;;5026039;28;20430;-72
2022/02/17 08:32:02;;;;;;;6.40;2.30;;;7.30;99.90;;;;;;5025896;28;20025;-71
2022/02/17 08:34:28;;;;;;;13.95;1.98;;;7.30;99.90;;;;;;5043662;28;20036;-75
2022/02/17 08:36:54;;;;;;;8.85;1.25;;;7.20;99.90;;;;;;5038379;28;20037;-70
2022/02/17 08:39:49;;;;;;;13.45;1.88;;;7.20;99.90;;;;;;5044643;28;20398;-74
2022/02/17 08:42:21;;;;;;;12.30;1.25;;;7.20;99.90;;;;;;5046326;28;20018;-73
2022/02/17 08:44:59;;;;;;;15.80;2.45;;;7.20;99.90;;;;;;5045677;28;20025;-75
2022/02/17 08:47:25;;;;;;;8.52;1.35;;;7.20;99.90;;;;;;5029227;28;20054;-73
2022/02/17 08:49:50;;;;;;;7.55;1.75;;;7.20;99.90;;;;;;5031941;28;20037;-68
2022/02/17 08:52:19;;;;;;;15.27;1.88;;;7.20;99.90;;;;;;5027806;28;20030;-72
2022/02/17 08:54:45;;;;;;;7.90;1.13;;;7.10;99.90;;;;;;5024159;28;20037;-72
2022/02/17 08:57:22;;;;;;;19.20;2.20;;;7.20;99.90;;;;;;5029462;28;20017;-72
2022/02/17 08:59:49;;;;;;;12.98;1.77;;;7.20;99.90;;;;;;5037443;28;20385;-73
2022/02/17 09:02:22;;;;;;;6.38;2.03;;;7.10;99.90;;;;;;5045146;28;20029;-71
2022/02/17 09:04:49;;;;;;;2.38;1.02;;;7.00;99.90;;;;;;5042865;28;20041;-72
2022/02/17 09:07:14;;;;;;;13.90;1.58;;;6.90;99.90;;;;;;5044813;28;20041;-73
2022/02/17 09:09:41;;;;;;;9.23;2.72;;;6.90;99.90;;;;;;5045882;28;20026;-70
2022/02/17 09:12:08;;;;;;;14.23;1.42;;;6.90;99.90;;;;;;5034315;28;20060;-70
2022/02/17 09:14:34;;;;;;;3.85;1.30;;;6.90;99.90;;;;;;5035412;28;20059;-71
2022/02/17 09:17:06;;;;;;;7.45;1.90;;;6.90;99.90;;;;;;5030243;28;20267;-70
2022/02/17 09:19:34;;;;;;;16.92;2.30;;;6.90;99.90;;;;;;5028057;28;20096;-71
2022/02/17 09:22:00;;;;;;;6.93;1.85;;;6.90;99.90;;;;;;5030551;28;20052;-72
2022/02/17 09:24:26;;;;;;;6.50;1.67;;;6.90;99.90;;;;;;5038457;28;20045;-69
2022/02/17 09:26:58;;;;;;;13.57;1.83;;;6.90;99.90;;;;;;5028712;28;20037;-71
2022/02/17 09:29:23;;;;;;;10.73;1.77;;;6.80;99.90;;;;;;5045766;28;20030;-68
2022/02/17 09:31:49;;;;;;;6.13;1.85;;;6.80;99.90;;;;;;5043981;28;20104;-73
2022/02/17 09:34:14;;;;;;;9.45;1.77;;;6.80;99.90;;;;;;5038353;28;20536;-68
2022/02/17 09:36:40;;;;;;;18.70;1.48;;;6.80;99.90;;;;;;5025274;28;20014;-74
2022/02/17 09:39:07;;;;;;;16.52;1.95;;;6.80;99.90;;;;;;5023950;28;20022;-69
2022/02/17 09:41:32;;;;;;;5.30;1.60;;;6.70;99.90;;;;;;5025744;28;20833;-67
2022/02/17 09:44:08;;;;;;;20.33;3.10;;;6.70;99.90;;;;;;5025318;28;20026;-67
2022/02/17 09:46:36;;;;;;;9.27;1.63;;;6.70;99.90;;;;;;5025290;28;20030;-70
2022/02/17 09:49:08;;;;;;;13.35;1.58;;;6.70;99.90;;;;;;5025305;28;20030;-72
2022/02/17 09:51:34;;;;;;;9.98;2.17;;;6.70;99.90;;;;;;5031446;28;20057;-70
2022/02/17 09:54:00;;;;;;;9.65;1.42;;;6.70;99.90;;;;;;5043167;28;20384;-70
2022/02/17 09:56:26;;;;;;;3.88;1.05;;;6.70;99.90;;;;;;5045106;28;20052;-71
2022/02/17 09:58:56;;;;;;;9.85;2.15;;;6.70;99.90;;;;;;5044155;28;20029;-71
2022/02/17 10:01:27;;;;;;;7.63;1.55;;;6.70;99.90;;;;;;5044784;28;20025;-72
2022/02/17 10:04:17;;;;;;;12.75;2.88;;;6.70;99.90;;;;;;5044946;28;20017;-68
2022/02/17 10:06:47;;;;;;;10.85;1.50;;;6.60;99.90;;;;;;5044219;28;20059;-72
2022/02/17 10:09:15;;;;;;;13.75;1.75;;;6.40;99.90;;;;;;5044020;28;20025;-69
2022/02/17 10:11:42;;;;;;;2.35;0.82;;;5.90;99.90;;;;;;5045013;28;20025;-69
2022/02/17 10:14:18;;;;;;;0.95;0.40;;;5.60;99.90;;;;;;5044448;28;20048;-71
2022/02/17 10:16:55;;;;;;;1.02;0.50;;;5.40;99.90;;;;;;5044513;28;20075;-70
2022/02/17 10:19:42;;;;;;;2.85;0.50;;;5.20;99.90;;;;;;5029290;28;20083;-69
2022/02/17 10:22:09;;;;;;;0.95;0.20;;;5.10;99.90;;;;;;5024235;28;20053;-73
2022/02/17 10:24:48;;;;;;;3.33;0.28;;;5.20;99.90;;;;;;5024641;28;20391;-73
2022/02/17 10:27:22;;;;;;;0.55;0.25;;;5.10;99.90;;;;;;5023832;28;20521;-70
2022/02/17 10:30:09;;;;;;;0.57;0.30;;;5.10;99.90;;;;;;5035590;28;20090;-71
2022/02/17 10:32:36;;;;;;;1.33;0.57;;;5.10;99.90;;;;;;5043431;28;20052;-70
2022/02/17 10:35:13;;;;;;;5.05;1.27;;;5.20;99.90;;;;;;5044223;28;20029;-72
2022/02/17 10:37:48;;;;;;;8.05;0.98;;;5.30;99.90;;;;;;5044315;28;20025;-73
2022/02/17 10:40:17;;;;;;;4.38;0.85;;;5.30;99.90;;;;;;5039858;28;20033;-68
2022/02/17 10:42:56;;;;;;;11.35;1.05;;;5.40;99.90;;;;;;5024214;28;20030;-72
2022/02/17 10:45:22;;;;;;;2.85;1.00;;;5.50;99.90;;;;;;5024480;28;20037;-69
2022/02/17 10:47:48;;;;;;;5.57;1.23;;;5.50;99.90;;;;;;5024516;28;20095;-71
2022/02/17 10:50:18;;;;;;;9.27;1.80;;;5.70;99.90;;;;;;5026589;28;20030;-69
2022/02/17 10:52:45;;;;;;;19.85;1.35;;;5.70;99.90;;;;;;5031413;28;20069;-72
2022/02/17 10:55:16;;;;;;;2.38;1.15;;;5.80;99.90;;;;;;5038460;28;20060;-71
2022/02/17 10:57:43;;;;;;;2.83;1.13;;;5.90;99.90;;;;;;5036412;28;20387;-71
2022/02/17 11:00:13;;;;;;;1.50;0.55;;;6.00;99.90;;;;;;5033354;28;20032;-70
2022/02/17 11:02:41;;;;;;;13.07;1.70;;;6.20;99.90;;;;;;5025084;28;20118;-71
2022/02/17 11:05:11;;;;;;;4.00;0.90;;;6.30;99.90;;;;;;5023552;28;20038;-73
2022/02/17 11:07:39;;;;;;;11.88;2.05;;;6.40;99.90;;;;;;5036690;28;20089;-72
2022/02/17 11:10:07;;;;;;;6.85;1.40;;;6.40;99.90;;;;;;5024472;28;20033;-70
2022/02/17 11:12:42;;;;;;;3.40;1.00;;;6.40;99.90;;;;;;5031771;28;20545;-70
2022/02/17 11:15:09;;;;;;;6.28;1.05;;;6.40;99.90;;;;;;5036287;28;20063;-74
2022/02/17 11:17:39;;;;;;;9.95;1.17;;;6.60;99.90;;;;;;5043943;28;20033;-69
2022/02/17 11:20:11;;;;;;;4.78;2.40;;;6.80;99.90;;;;;;5044298;28;20073;-71
2022/02/17 11:22:42;;;;;;;9.88;1.20;;;6.90;99.90;;;;;;5035278;28;20030;-71
2022/02/17 11:25:13;;;;;;;6.55;1.50;;;7.10;99.90;;;;;;5042320;28;20058;-73
2022/02/17 11:27:58;;;;;;;9.23;1.35;;;7.10;99.90;;;;;;5032778;28;20061;-71
2022/02/17 11:30:27;;;;;;;10.43;1.23;;;7.00;99.90;;;;;;5032029;28;20112;-71
2022/02/17 11:33:21;;;;;;;15.60;1.38;;;6.90;99.90;;;;;;5041562;28;20088;-70
2022/02/17 11:36:19;;;;;;;10.93;2.50;;;6.80;99.90;;;;;;5028010;28;20034;-70
2022/02/17 11:38:52;;;;;;;2.08;1.25;;;7.00;99.90;;;;;;5028041;28;20026;-71
2022/02/17 11:41:19;;;;;;;2.75;1.35;;;7.30;99.90;;;;;;5027809;28;20026;-71
2022/02/17 11:43:50;;;;;;;8.00;1.10;;;7.90;99.90;;;;;;5027796;28;20029;-72
2022/02/17 11:46:42;;;;;;;12.55;1.75;;;8.40;99.90;;;;;;5027170;28;20044;-73
2022/02/17 11:49:29;;;;;;;8.88;1.90;;;8.50;99.90;;;;;;5027862;28;20034;-71
2022/02/17 11:52:19;;;;;;;2.13;1.30;;;8.30;99.90;;;;;;5027313;28;20030;-74
2022/02/17 11:55:21;;;;;;;6.43;0.82;;;7.90;99.90;;;;;;5025845;28;20030;-71
2022/02/17 11:57:47;;;;;;;8.45;1.98;;;7.80;99.90;;;;;;5027590;28;20033;-70
2022/02/17 12:00:15;;;;;;;12.38;2.35;;;7.90;99.90;;;;;;5027052;28;20030;-71
2022/02/17 12:02:55;;;;;;;6.82;1.55;;;8.00;99.90;;;;;;5027432;28;20033;-74
2022/02/17 12:05:21;;;;;;;16.70;1.60;;;8.00;99.90;;;;;;5034991;28;20045;-69
2022/02/17 12:07:49;;;;;;;7.00;1.02;;;7.80;99.90;;;;;;5027495;28;20029;-73
2022/02/17 12:10:39;;;;;;;2.17;0.40;;;7.50;99.90;;;;;;5024761;28;20488;-73
2022/02/17 12:13:05;;;;;;;2.10;0.57;;;7.40;99.90;;;;;;5026341;28;20018;-72
2022/02/17 12:15:31;;;;;;;6.13;0.65;;;7.50;99.90;;;;;;5025328;28;20022;-71
2022/02/17 12:17:58;;;;;;;7.10;1.17;;;7.70;99.90;;;;;;5027065;28;20075;-68
2022/02/17 12:20:28;;;;;;;8.20;1.48;;;7.70;99.90;;;;;;5026794;28;20503;-70
2022/02/17 12:22:56;;;;;;;3.30;0.85;;;7.70;99.90;;;;;;5026696;28;20028;-71
2022/02/17 12:25:26;;;;;;;6.78;0.90;;;7.60;99.90;;;;;;5026831;28;20053;-71
2022/02/17 12:27:55;;;;;;;9.15;1.05;;;7.70;99.90;;;;;;5035761;28;20026;-71
2022/02/17 12:30:43;;;;;;;5.03;1.88;;;7.70;99.90;;;;;;5026580;28;20018;-71
2022/02/17 12:33:19;;;;;;;7.10;1.63;;;7.70;99.90;;;;;;5022026;28;20049;-71
2022/02/17 12:36:00;;;;;;;15.10;2.25;;;7.80;99.90;;;;;;5029372;28;20025;-69
2022/02/17 12:38:34;;;;;;;13.07;1.85;;;7.90;99.90;;;;;;5046136;28;20077;-70
2022/02/17 12:41:06;;;;;;;10.95;2.05;;;7.90;99.90;;;;;;5046189;28;20032;-70
2022/02/17 12:43:42;;;;;;;6.45;1.63;;;7.80;99.90;;;;;;5046436;28;20071;-71
2022/02/17 12:46:12;;;;;;;16.88;1.67;;;7.50;99.90;;;;;;5035669;28;20493;-71
2022/02/17 12:48:40;;;;;;;3.63;0.70;;;7.10;99.90;;;;;;5024812;28;20030;-73
2022/02/17 12:51:07;;;;;;;5.47;1.27;;;6.80;99.90;;;;;;5026412;28;20040;-72
2022/02/17 12:53:52;;;;;;;11.98;1.80;;;7.00;99.90;;;;;;5026630;28;20065;-70
2022/02/17 12:56:22;;;;;;;7.65;2.05;;;7.10;99.90;;;;;;5028247;28;20038;-70
2022/02/17 12:58:48;;;;;;;7.43;2.78;;;7.40;99.90;;;;;;5026581;28;20033;-71
2022/02/17 13:01:25;;;;;;;2.10;1.02;;;7.70;99.90;;;;;;5029390;28;20078;-69
2022/02/17 13:03:52;;;;;;;11.70;1.55;;;8.00;99.90;;;;;;5046184;28;20033;-73
2022/02/17 13:06:27;;;;;;;3.42;1.38;;;8.20;99.90;;;;;;5046035;28;20037;-70